sensor_id;sensor_type;location;lat;lon;timestamp;pressure;altitude;pressure_sealevel;temperature;humidity
60479;BME280;46321;48.398;11.754;2023-02-18T00:02:06;97382.00;;;10.69;71.61
60479;BME280;46321;48.398;11.754;2023-02-18T00:04:31;97386.31;;;10.70;72.04
60479;BME280;46321;48.398;11.754;2023-02-18T00:06:56;97383.97;;;10.67;72.11
60479;BME280;46321;48.398;11.754;2023-02-18T00:09:22;97378.00;;;10.65;72.28
60479;BME280;46321;48.398;11.754;2023-02-18T00:11:48;97374.38;;;10.66;72.33
60479;BME280;46321;48.398;11.754;2023-02-18T00:14:14;97372.19;;;10.61;72.43
60479;BME280;46321;48.398;11.754;2023-02-18T00:16:41;97373.69;;;10.64;72.57
60479;BME280;46321;48.398;11.754;2023-02-18T00:19:11;97384.56;;;10.61;72.64
60479;BME280;46321;48.398;11.754;2023-02-18T00:21:37;97368.84;;;10.59;72.96
60479;BME280;46321;48.398;11.754;2023-02-18T00:24:04;97374.28;;;10.58;73.10
60479;BME280;46321;48.398;11.754;2023-02-18T00:26:29;97369.00;;;10.58;72.90
60479;BME280;46321;48.398;11.754;2023-02-18T00:28:55;97368.31;;;10.56;73.31
60479;BME280;46321;48.398;11.754;2023-02-18T00:31:23;97371.97;;;10.55;73.63
60479;BME280;46321;48.398;11.754;2023-02-18T00:33:49;97370.44;;;10.52;73.63
60479;BME280;46321;48.398;11.754;2023-02-18T00:36:16;97372.25;;;10.51;73.64
60479;BME280;46321;48.398;11.754;2023-02-18T00:38:49;97371.72;;;10.48;74.05
60479;BME280;46321;48.398;11.754;2023-02-18T00:41:15;97372.31;;;10.41;74.38
60479;BME280;46321;48.398;11.754;2023-02-18T00:43:41;97369.13;;;10.38;74.56
60479;BME280;46321;48.398;11.754;2023-02-18T00:46:06;97375.66;;;10.44;74.13
60479;BME280;46321;48.398;11.754;2023-02-18T00:48:32;97369.19;;;10.46;74.45
60479;BME280;46321;48.398;11.754;2023-02-18T00:50:59;97372.09;;;10.53;73.93
60479;BME280;46321;48.398;11.754;2023-02-18T00:53:25;97359.19;;;10.50;74.04
60479;BME280;46321;48.398;11.754;2023-02-18T00:55:50;97368.22;;;10.47;74.17
60479;BME280;46321;48.398;11.754;2023-02-18T00:58:16;97362.78;;;10.49;74.16
60479;BME280;46321;48.398;11.754;2023-02-18T01:00:41;97366.03;;;10.42;74.56
60479;BME280;46321;48.398;11.754;2023-02-18T01:03:07;97363.59;;;10.49;74.29
60479;BME280;46321;48.398;11.754;2023-02-18T01:05:33;97356.53;;;10.50;74.24
60479;BME280;46321;48.398;11.754;2023-02-18T01:07:58;97353.72;;;10.51;74.22
60479;BME280;46321;48.398;11.754;2023-02-18T01:10:23;97358.47;;;10.48;74.35
60479;BME280;46321;48.398;11.754;2023-02-18T01:12:49;97354.31;;;10.45;74.27
60479;BME280;46321;48.398;11.754;2023-02-18T01:15:15;97352.34;;;10.47;74.29
60479;BME280;46321;48.398;11.754;2023-02-18T01:17:41;97359.59;;;10.45;74.32
60479;BME280;46321;48.398;11.754;2023-02-18T01:20:08;97365.16;;;10.52;74.10
60479;BME280;46321;48.398;11.754;2023-02-18T01:22:33;97354.47;;;10.44;74.36
60479;BME280;46321;48.398;11.754;2023-02-18T01:24:59;97357.56;;;10.39;74.52
60479;BME280;46321;48.398;11.754;2023-02-18T01:27:24;97363.22;;;10.44;74.42
60479;BME280;46321;48.398;11.754;2023-02-18T01:29:50;97351.81;;;10.44;74.50
60479;BME280;46321;48.398;11.754;2023-02-18T01:32:15;97344.13;;;10.50;74.18
60479;BME280;46321;48.398;11.754;2023-02-18T01:34:40;97344.41;;;10.47;74.37
60479;BME280;46321;48.398;11.754;2023-02-18T01:37:06;97352.88;;;10.51;74.05
60479;BME280;46321;48.398;11.754;2023-02-18T01:39:31;97338.44;;;10.45;74.27
60479;BME280;46321;48.398;11.754;2023-02-18T01:41:56;97341.75;;;10.47;74.31
60479;BME280;46321;48.398;11.754;2023-02-18T01:44:24;97340.09;;;10.46;74.37
60479;BME280;46321;48.398;11.754;2023-02-18T01:46:50;97339.09;;;10.47;74.14
60479;BME280;46321;48.398;11.754;2023-02-18T01:49:25;97343.72;;;10.45;74.17
60479;BME280;46321;48.398;11.754;2023-02-18T01:51:54;97348.19;;;10.45;74.39
60479;BME280;46321;48.398;11.754;2023-02-18T01:54:26;97343.97;;;10.52;74.32
60479;BME280;46321;48.398;11.754;2023-02-18T01:57:02;97336.09;;;10.42;74.46
60479;BME280;46321;48.398;11.754;2023-02-18T01:59:36;97332.56;;;10.51;74.47
60479;BME280;46321;48.398;11.754;2023-02-18T02:02:02;97318.84;;;10.38;74.90
60479;BME280;46321;48.398;11.754;2023-02-18T02:04:28;97315.84;;;10.33;75.33
60479;BME280;46321;48.398;11.754;2023-02-18T02:06:54;97309.25;;;10.37;75.27
60479;BME280;46321;48.398;11.754;2023-02-18T02:09:21;97303.13;;;10.36;75.24
60479;BME280;46321;48.398;11.754;2023-02-18T02:17:17;97306.66;;;10.45;75.05
60479;BME280;46321;48.398;11.754;2023-02-18T02:28:54;97313.47;;;10.48;75.03
60479;BME280;46321;48.398;11.754;2023-02-18T02:39:51;97310.00;;;10.47;74.92
60479;BME280;46321;48.398;11.754;2023-02-18T02:44:59;97301.63;;;10.52;74.82
60479;BME280;46321;48.398;11.754;2023-02-18T02:50:03;97301.31;;;10.55;74.39
60479;BME280;46321;48.398;11.754;2023-02-18T02:52:33;97300.50;;;10.55;74.38
60479;BME280;46321;48.398;11.754;2023-02-18T02:55:07;97304.44;;;10.50;74.47
60479;BME280;46321;48.398;11.754;2023-02-18T03:00:04;97297.59;;;10.48;74.53
60479;BME280;46321;48.398;11.754;2023-02-18T03:03:04;97289.13;;;10.44;74.49
60479;BME280;46321;48.398;11.754;2023-02-18T03:08:18;97283.09;;;10.34;74.89
60479;BME280;46321;48.398;11.754;2023-02-18T03:10:56;97284.16;;;10.41;74.19
60479;BME280;46321;48.398;11.754;2023-02-18T03:13:31;97281.19;;;10.44;74.01
60479;BME280;46321;48.398;11.754;2023-02-18T03:16:07;97279.47;;;10.35;74.03
60479;BME280;46321;48.398;11.754;2023-02-18T03:18:39;97279.81;;;10.40;73.63
60479;BME280;46321;48.398;11.754;2023-02-18T03:21:19;97286.75;;;10.33;74.04
60479;BME280;46321;48.398;11.754;2023-02-18T03:24:02;97283.47;;;10.39;74.00
60479;BME280;46321;48.398;11.754;2023-02-18T03:26:32;97291.72;;;10.36;74.09
60479;BME280;46321;48.398;11.754;2023-02-18T03:29:02;97282.13;;;10.35;73.98
60479;BME280;46321;48.398;11.754;2023-02-18T03:31:30;97283.22;;;10.24;74.50
60479;BME280;46321;48.398;11.754;2023-02-18T03:34:02;97286.19;;;10.29;74.15
60479;BME280;46321;48.398;11.754;2023-02-18T03:36:31;97277.28;;;10.30;74.08
60479;BME280;46321;48.398;11.754;2023-02-18T03:39:03;97289.00;;;10.27;74.19
60479;BME280;46321;48.398;11.754;2023-02-18T03:41:31;97283.66;;;10.19;74.37
60479;BME280;46321;48.398;11.754;2023-02-18T03:43:59;97282.38;;;10.23;74.63
60479;BME280;46321;48.398;11.754;2023-02-18T03:46:26;97274.72;;;10.20;74.33
60479;BME280;46321;48.398;11.754;2023-02-18T03:48:52;97279.78;;;10.31;74.09
60479;BME280;46321;48.398;11.754;2023-02-18T03:51:18;97272.47;;;10.25;74.31
60479;BME280;46321;48.398;11.754;2023-02-18T03:53:44;97280.41;;;10.25;74.38
60479;BME280;46321;48.398;11.754;2023-02-18T03:56:09;97276.44;;;10.29;74.18
60479;BME280;46321;48.398;11.754;2023-02-18T03:58:34;97286.38;;;10.27;73.90
60479;BME280;46321;48.398;11.754;2023-02-18T04:01:00;97296.63;;;10.30;74.21
60479;BME280;46321;48.398;11.754;2023-02-18T04:03:25;97283.41;;;10.30;74.27
60479;BME280;46321;48.398;11.754;2023-02-18T04:05:51;97291.19;;;10.32;74.07
60479;BME280;46321;48.398;11.754;2023-02-18T04:08:16;97283.72;;;10.27;74.32
60479;BME280;46321;48.398;11.754;2023-02-18T04:10:41;97280.91;;;10.29;74.11
60479;BME280;46321;48.398;11.754;2023-02-18T04:13:07;97287.72;;;10.31;74.16
60479;BME280;46321;48.398;11.754;2023-02-18T04:15:32;97296.28;;;10.25;74.19
60479;BME280;46321;48.398;11.754;2023-02-18T04:17:58;97289.75;;;10.19;74.44
60479;BME280;46321;48.398;11.754;2023-02-18T04:20:24;97287.78;;;10.22;74.09
60479;BME280;46321;48.398;11.754;2023-02-18T04:22:49;97294.31;;;10.27;73.88
60479;BME280;46321;48.398;11.754;2023-02-18T04:25:14;97292.78;;;10.25;73.81
60479;BME280;46321;48.398;11.754;2023-02-18T04:27:40;97298.09;;;10.25;73.93
60479;BME280;46321;48.398;11.754;2023-02-18T04:30:05;97285.84;;;10.24;73.58
60479;BME280;46321;48.398;11.754;2023-02-18T04:32:31;97284.63;;;10.18;73.56
60479;BME280;46321;48.398;11.754;2023-02-18T04:34:56;97280.19;;;10.18;73.55
60479;BME280;46321;48.398;11.754;2023-02-18T04:37:22;97289.94;;;10.18;73.55
60479;BME280;46321;48.398;11.754;2023-02-18T04:39:47;97290.94;;;10.17;73.73
60479;BME280;46321;48.398;11.754;2023-02-18T04:42:12;97290.94;;;10.17;73.54
60479;BME280;46321;48.398;11.754;2023-02-18T04:44:37;97297.47;;;10.13;73.81
60479;BME280;46321;48.398;11.754;2023-02-18T04:47:05;97296.06;;;10.18;74.00
60479;BME280;46321;48.398;11.754;2023-02-18T04:49:30;97299.09;;;10.24;73.83
60479;BME280;46321;48.398;11.754;2023-02-18T04:51:56;97305.84;;;10.26;73.94
60479;BME280;46321;48.398;11.754;2023-02-18T04:54:22;97298.91;;;10.25;74.06
60479;BME280;46321;48.398;11.754;2023-02-18T04:56:47;97289.94;;;10.18;74.59
60479;BME280;46321;48.398;11.754;2023-02-18T04:59:12;97287.94;;;10.20;74.78
60479;BME280;46321;48.398;11.754;2023-02-18T05:01:37;97287.94;;;10.20;74.72
60479;BME280;46321;48.398;11.754;2023-02-18T05:04:03;97283.56;;;10.11;75.33
60479;BME280;46321;48.398;11.754;2023-02-18T05:06:28;97281.81;;;10.19;74.94
60479;BME280;46321;48.398;11.754;2023-02-18T05:08:54;97285.63;;;10.17;75.12
60479;BME280;46321;48.398;11.754;2023-02-18T05:11:19;97287.13;;;10.19;74.77
60479;BME280;46321;48.398;11.754;2023-02-18T05:13:44;97286.22;;;10.11;75.08
60479;BME280;46321;48.398;11.754;2023-02-18T05:16:09;97281.94;;;10.10;75.39
60479;BME280;46321;48.398;11.754;2023-02-18T05:18:35;97277.69;;;10.17;74.59
60479;BME280;46321;48.398;11.754;2023-02-18T05:21:00;97277.38;;;10.20;74.77
60479;BME280;46321;48.398;11.754;2023-02-18T05:23:25;97285.16;;;10.22;74.18
60479;BME280;46321;48.398;11.754;2023-02-18T05:25:51;97279.34;;;10.18;74.84
60479;BME280;46321;48.398;11.754;2023-02-18T05:28:16;97278.66;;;10.16;74.67
60479;BME280;46321;48.398;11.754;2023-02-18T05:30:42;97277.69;;;10.17;74.54
60479;BME280;46321;48.398;11.754;2023-02-18T05:33:07;97283.00;;;10.17;74.62
60479;BME280;46321;48.398;11.754;2023-02-18T05:35:32;97284.94;;;10.15;74.69
60479;BME280;46321;48.398;11.754;2023-02-18T05:37:57;97276.53;;;10.19;74.42
60479;BME280;46321;48.398;11.754;2023-02-18T05:40:23;97275.72;;;10.19;73.87
60479;BME280;46321;48.398;11.754;2023-02-18T05:42:48;97269.44;;;10.20;73.91
60479;BME280;46321;48.398;11.754;2023-02-18T05:45:13;97267.00;;;10.27;73.68
60479;BME280;46321;48.398;11.754;2023-02-18T05:47:39;97269.81;;;10.25;73.35
60479;BME280;46321;48.398;11.754;2023-02-18T05:50:04;97268.13;;;10.24;73.49
60479;BME280;46321;48.398;11.754;2023-02-18T05:52:30;97257.00;;;10.12;73.55
60479;BME280;46321;48.398;11.754;2023-02-18T05:54:55;97268.91;;;10.16;73.43
60479;BME280;46321;48.398;11.754;2023-02-18T05:57:20;97265.66;;;10.23;73.07
60479;BME280;46321;48.398;11.754;2023-02-18T05:59:46;97265.16;;;10.19;73.10
60479;BME280;46321;48.398;11.754;2023-02-18T06:02:11;97265.16;;;10.19;73.24
60479;BME280;46321;48.398;11.754;2023-02-18T06:04:36;97270.44;;;10.19;72.94
60479;BME280;46321;48.398;11.754;2023-02-18T06:07:02;97265.66;;;10.23;72.65
60479;BME280;46321;48.398;11.754;2023-02-18T06:09:27;97268.75;;;10.18;72.77
60479;BME280;46321;48.398;11.754;2023-02-18T06:11:52;97283.50;;;10.21;72.81
60479;BME280;46321;48.398;11.754;2023-02-18T06:14:18;97284.47;;;10.19;73.07
60479;BME280;46321;48.398;11.754;2023-02-18T06:16:43;97284.63;;;10.18;73.09
60479;BME280;46321;48.398;11.754;2023-02-18T06:19:09;97281.81;;;10.19;73.14
60479;BME280;46321;48.398;11.754;2023-02-18T06:21:34;97283.03;;;10.25;72.89
60479;BME280;46321;48.398;11.754;2023-02-18T06:23:59;97287.13;;;10.19;73.01
60479;BME280;46321;48.398;11.754;2023-02-18T06:26:25;97280.47;;;10.15;73.21
60479;BME280;46321;48.398;11.754;2023-02-18T06:28:50;97302.19;;;10.19;73.13
60479;BME280;46321;48.398;11.754;2023-02-18T06:31:16;97307.47;;;10.19;73.16
60479;BME280;46321;48.398;11.754;2023-02-18T06:33:41;97301.81;;;10.14;73.08
60479;BME280;46321;48.398;11.754;2023-02-18T06:36:08;97299.88;;;10.24;72.86
60479;BME280;46321;48.398;11.754;2023-02-18T06:38:38;97293.41;;;10.18;73.17
60479;BME280;46321;48.398;11.754;2023-02-18T06:41:04;97303.38;;;10.25;72.79
60479;BME280;46321;48.398;11.754;2023-02-18T06:43:30;97299.22;;;10.22;73.04
60479;BME280;46321;48.398;11.754;2023-02-18T06:45:55;97288.56;;;10.14;73.24
60479;BME280;46321;48.398;11.754;2023-02-18T06:48:22;97281.94;;;10.10;73.70
60479;BME280;46321;48.398;11.754;2023-02-18T06:50:48;97288.78;;;10.21;73.55
60479;BME280;46321;48.398;11.754;2023-02-18T06:53:13;97291.44;;;10.21;73.40
60479;BME280;46321;48.398;11.754;2023-02-18T06:55:41;97290.97;;;10.25;73.17
60479;BME280;46321;48.398;11.754;2023-02-18T06:58:08;97297.03;;;10.17;73.34
60479;BME280;46321;48.398;11.754;2023-02-18T07:00:34;97288.97;;;10.19;73.29
60479;BME280;46321;48.398;11.754;2023-02-18T07:03:00;97286.31;;;10.19;73.30
60479;BME280;46321;48.398;11.754;2023-02-18T07:05:26;97282.38;;;10.23;73.05
60479;BME280;46321;48.398;11.754;2023-02-18T07:07:52;97282.28;;;10.15;73.36
60479;BME280;46321;48.398;11.754;2023-02-18T07:10:17;97283.72;;;10.27;73.04
60479;BME280;46321;48.398;11.754;2023-02-18T07:12:42;97282.50;;;10.22;73.18
60479;BME280;46321;48.398;11.754;2023-02-18T07:15:08;97280.41;;;10.25;73.08
60479;BME280;46321;48.398;11.754;2023-02-18T07:17:33;97288.00;;;10.28;72.80
60479;BME280;46321;48.398;11.754;2023-02-18T07:19:59;97279.31;;;10.36;72.88
60479;BME280;46321;48.398;11.754;2023-02-18T07:22:25;97283.97;;;10.42;72.95
60479;BME280;46321;48.398;11.754;2023-02-18T07:24:52;97287.75;;;10.40;72.44
60479;BME280;46321;48.398;11.754;2023-02-18T07:27:18;97291.09;;;10.42;72.59
60479;BME280;46321;48.398;11.754;2023-02-18T07:29:44;97290.19;;;10.51;72.38
60479;BME280;46321;48.398;11.754;2023-02-18T07:32:14;97282.00;;;10.45;72.60
60479;BME280;46321;48.398;11.754;2023-02-18T07:34:40;97275.53;;;10.57;72.07
60479;BME280;46321;48.398;11.754;2023-02-18T07:37:05;97285.63;;;10.62;71.75
60479;BME280;46321;48.398;11.754;2023-02-18T07:39:39;97284.69;;;10.71;71.49
60479;BME280;46321;48.398;11.754;2023-02-18T07:42:05;97284.34;;;10.66;71.76
60479;BME280;46321;48.398;11.754;2023-02-18T07:44:30;97285.69;;;10.70;71.48
60479;BME280;46321;48.398;11.754;2023-02-18T07:46:55;97283.34;;;10.67;71.34
60479;BME280;46321;48.398;11.754;2023-02-18T07:49:21;97276.06;;;10.69;71.23
60479;BME280;46321;48.398;11.754;2023-02-18T07:51:47;97284.56;;;10.73;70.83
60479;BME280;46321;48.398;11.754;2023-02-18T07:54:12;97274.31;;;10.78;70.46
60479;BME280;46321;48.398;11.754;2023-02-18T07:56:38;97271.19;;;10.83;70.32
60479;BME280;46321;48.398;11.754;2023-02-18T07:59:04;97265.41;;;10.87;69.98
60479;BME280;46321;48.398;11.754;2023-02-18T08:01:29;97271.78;;;11.03;69.59
60479;BME280;46321;48.398;11.754;2023-02-18T08:03:54;97272.34;;;11.15;69.27
60479;BME280;46321;48.398;11.754;2023-02-18T08:06:24;97274.31;;;11.13;69.20
60479;BME280;46321;48.398;11.754;2023-02-18T08:08:50;97271.03;;;11.19;69.02
60479;BME280;46321;48.398;11.754;2023-02-18T08:11:15;97265.56;;;11.21;68.72
60479;BME280;46321;48.398;11.754;2023-02-18T08:13:41;97263.94;;;11.28;68.84
60479;BME280;46321;48.398;11.754;2023-02-18T08:16:06;97258.63;;;11.28;68.67
60479;BME280;46321;48.398;11.754;2023-02-18T08:18:31;97245.66;;;11.17;68.86
60479;BME280;46321;48.398;11.754;2023-02-18T08:20:57;97243.22;;;11.32;68.62
60479;BME280;46321;48.398;11.754;2023-02-18T08:23:22;97235.81;;;11.44;68.37
60479;BME280;46321;48.398;11.754;2023-02-18T08:25:51;97235.34;;;11.49;67.57
60479;BME280;46321;48.398;11.754;2023-02-18T08:28:17;97252.09;;;11.66;66.96
60479;BME280;46321;48.398;11.754;2023-02-18T08:30:47;97244.31;;;11.81;66.45
60479;BME280;46321;48.398;11.754;2023-02-18T08:33:14;97238.84;;;11.83;66.29
60479;BME280;46321;48.398;11.754;2023-02-18T08:35:40;97230.56;;;11.94;66.36
60479;BME280;46321;48.398;11.754;2023-02-18T08:38:05;97226.59;;;12.23;65.45
60479;BME280;46321;48.398;11.754;2023-02-18T08:40:31;97234.34;;;12.50;64.38
60479;BME280;46321;48.398;11.754;2023-02-18T08:42:56;97222.56;;;12.53;64.06
60479;BME280;46321;48.398;11.754;2023-02-18T08:45:21;97226.06;;;12.45;63.43
60479;BME280;46321;48.398;11.754;2023-02-18T08:47:47;97229.03;;;12.50;63.73
60479;BME280;46321;48.398;11.754;2023-02-18T08:50:12;97235.47;;;12.64;63.81
60479;BME280;46321;48.398;11.754;2023-02-18T08:52:37;97228.03;;;12.68;62.88
60479;BME280;46321;48.398;11.754;2023-02-18T08:55:03;97221.50;;;12.70;62.59
60479;BME280;46321;48.398;11.754;2023-02-18T08:57:29;97224.97;;;12.79;62.55
60479;BME280;46321;48.398;11.754;2023-02-18T08:59:54;97224.59;;;12.91;62.04
60479;BME280;46321;48.398;11.754;2023-02-18T09:02:20;97223.09;;;12.97;62.07
60479;BME280;46321;48.398;11.754;2023-02-18T09:04:45;97233.59;;;12.90;62.35
60479;BME280;46321;48.398;11.754;2023-02-18T09:07:10;97234.16;;;13.09;62.09
60479;BME280;46321;48.398;11.754;2023-02-18T09:09:35;97219.50;;;13.13;61.50
60479;BME280;46321;48.398;11.754;2023-02-18T09:12:01;97228.50;;;13.12;61.54
60479;BME280;46321;48.398;11.754;2023-02-18T09:14:26;97218.53;;;13.14;61.07
60479;BME280;46321;48.398;11.754;2023-02-18T09:16:53;97224.72;;;13.38;60.67
60479;BME280;46321;48.398;11.754;2023-02-18T09:19:20;97202.00;;;13.59;59.75
60479;BME280;46321;48.398;11.754;2023-02-18T09:21:45;97220.09;;;13.87;58.13
60479;BME280;46321;48.398;11.754;2023-02-18T09:24:10;97195.16;;;13.88;58.60
60479;BME280;46321;48.398;11.754;2023-02-18T09:26:37;97208.22;;;13.74;58.35
60479;BME280;46321;48.398;11.754;2023-02-18T09:29:02;97209.06;;;13.75;58.12
60479;BME280;46321;48.398;11.754;2023-02-18T09:31:27;97205.63;;;13.66;58.07
60479;BME280;46321;48.398;11.754;2023-02-18T09:33:58;97208.75;;;13.70;58.44
60479;BME280;46321;48.398;11.754;2023-02-18T09:36:24;97191.94;;;13.46;58.48
60479;BME280;46321;48.398;11.754;2023-02-18T09:38:49;97187.34;;;13.31;58.73
60479;BME280;46321;48.398;11.754;2023-02-18T09:41:38;97191.03;;;13.54;58.35
60479;BME280;46321;48.398;11.754;2023-02-18T09:44:27;97194.22;;;13.49;58.58
60479;BME280;46321;48.398;11.754;2023-02-18T09:47:19;97185.53;;;13.32;58.74
60479;BME280;46321;48.398;11.754;2023-02-18T09:49:50;97180.75;;;13.27;58.97
60479;BME280;46321;48.398;11.754;2023-02-18T09:52:26;97184.22;;;13.27;58.50
60479;BME280;46321;48.398;11.754;2023-02-18T09:54:53;97185.53;;;13.00;58.81
60479;BME280;46321;48.398;11.754;2023-02-18T09:57:25;97186.03;;;13.03;59.30
60479;BME280;46321;48.398;11.754;2023-02-18T10:00:05;97190.97;;;13.07;59.54
60479;BME280;46321;48.398;11.754;2023-02-18T10:02:32;97168.28;;;12.96;59.49
60479;BME280;46321;48.398;11.754;2023-02-18T10:04:59;97182.63;;;13.18;59.24
60479;BME280;46321;48.398;11.754;2023-02-18T10:07:30;97172.56;;;13.28;59.31
60479;BME280;46321;48.398;11.754;2023-02-18T10:09:58;97181.31;;;13.14;59.17
60479;BME280;46321;48.398;11.754;2023-02-18T10:12:26;97170.69;;;13.14;59.15
60479;BME280;46321;48.398;11.754;2023-02-18T10:14:54;97174.38;;;13.36;58.72
60479;BME280;46321;48.398;11.754;2023-02-18T10:17:22;97175.78;;;13.47;58.64
60479;BME280;46321;48.398;11.754;2023-02-18T10:19:49;97158.47;;;13.51;58.23
60479;BME280;46321;48.398;11.754;2023-02-18T10:22:16;97155.63;;;13.61;57.76
60479;BME280;46321;48.398;11.754;2023-02-18T10:27:17;97149.88;;;14.57;55.84
60479;BME280;46321;48.398;11.754;2023-02-18T10:29:43;97133.41;;;15.65;53.52
60479;BME280;46321;48.398;11.754;2023-02-18T10:32:18;97131.50;;;17.77;47.91
60479;BME280;46321;48.398;11.754;2023-02-18T10:34:51;97115.91;;;18.68;44.39
60479;BME280;46321;48.398;11.754;2023-02-18T10:37:34;97110.81;;;18.98;43.60
60479;BME280;46321;48.398;11.754;2023-02-18T10:45:56;97080.41;;;19.18;41.27
60479;BME280;46321;48.398;11.754;2023-02-18T10:48:41;97075.72;;;19.90;40.74
60479;BME280;46321;48.398;11.754;2023-02-18T10:51:20;97066.56;;;19.21;41.76
60479;BME280;46321;48.398;11.754;2023-02-18T10:53:48;97062.75;;;18.97;42.52
60479;BME280;46321;48.398;11.754;2023-02-18T10:56:33;97063.31;;;19.06;42.40
60479;BME280;46321;48.398;11.754;2023-02-18T10:59:03;97081.97;;;18.48;42.79
60479;BME280;46321;48.398;11.754;2023-02-18T11:01:33;97073.19;;;17.93;44.08
60479;BME280;46321;48.398;11.754;2023-02-18T11:04:37;97069.53;;;17.73;45.12
60479;BME280;46321;48.398;11.754;2023-02-18T11:07:06;97058.41;;;17.22;46.58
60479;BME280;46321;48.398;11.754;2023-02-18T11:09:47;97069.94;;;17.57;46.19
60479;BME280;46321;48.398;11.754;2023-02-18T11:12:23;97069.31;;;17.55;46.56
60479;BME280;46321;48.398;11.754;2023-02-18T11:17:40;97057.59;;;17.49;46.19
60479;BME280;46321;48.398;11.754;2023-02-18T11:20:35;97062.69;;;17.16;47.05
60479;BME280;46321;48.398;11.754;2023-02-18T11:25:36;97051.50;;;16.86;47.62
60479;BME280;46321;48.398;11.754;2023-02-18T11:28:05;97048.38;;;16.62;47.43
60479;BME280;46321;48.398;11.754;2023-02-18T11:30:43;97043.25;;;16.80;47.15
60479;BME280;46321;48.398;11.754;2023-02-18T11:33:55;97045.47;;;16.56;47.68
60479;BME280;46321;48.398;11.754;2023-02-18T11:36:27;97032.97;;;16.70;47.88
60479;BME280;46321;48.398;11.754;2023-02-18T11:38:58;97040.59;;;15.89;49.49
60479;BME280;46321;48.398;11.754;2023-02-18T11:41:37;97022.03;;;15.74;49.25
60479;BME280;46321;48.398;11.754;2023-02-18T11:44:05;97030.81;;;15.67;49.48
60479;BME280;46321;48.398;11.754;2023-02-18T11:46:31;97021.50;;;15.28;50.07
60479;BME280;46321;48.398;11.754;2023-02-18T11:49:10;97024.53;;;15.25;50.64
60479;BME280;46321;48.398;11.754;2023-02-18T11:51:44;97031.25;;;15.42;50.32
60479;BME280;46321;48.398;11.754;2023-02-18T11:57:03;97005.63;;;15.48;50.65
60479;BME280;46321;48.398;11.754;2023-02-18T11:59:33;97013.16;;;15.38;50.64
60479;BME280;46321;48.398;11.754;2023-02-18T12:02:12;97004.09;;;15.61;50.42
60479;BME280;46321;48.398;11.754;2023-02-18T12:04:51;96989.78;;;15.75;50.40
60479;BME280;46321;48.398;11.754;2023-02-18T12:07:27;96987.91;;;15.69;50.08
60479;BME280;46321;48.398;11.754;2023-02-18T12:09:58;96974.78;;;15.67;50.56
60479;BME280;46321;48.398;11.754;2023-02-18T12:12:30;96966.72;;;15.61;50.43
60479;BME280;46321;48.398;11.754;2023-02-18T12:14:58;96968.31;;;15.55;50.40
60479;BME280;46321;48.398;11.754;2023-02-18T12:17:44;96955.63;;;15.28;50.82
60479;BME280;46321;48.398;11.754;2023-02-18T12:21:00;96953.53;;;15.23;51.87
60479;BME280;46321;48.398;11.754;2023-02-18T12:23:35;96943.66;;;15.17;51.03
60479;BME280;46321;48.398;11.754;2023-02-18T12:34:00;96943.94;;;15.01;50.64
60479;BME280;46321;48.398;11.754;2023-02-18T12:39:21;96914.88;;;14.84;51.07
60479;BME280;46321;48.398;11.754;2023-02-18T12:45:44;96922.53;;;14.87;51.67
60479;BME280;46321;48.398;11.754;2023-02-18T12:48:04;96921.03;;;15.06;51.09
60479;BME280;46321;48.398;11.754;2023-02-18T12:50:44;96927.88;;;15.16;51.28
60479;BME280;46321;48.398;11.754;2023-02-18T12:56:24;96934.69;;;14.96;51.19
60479;BME280;46321;48.398;11.754;2023-02-18T12:59:10;96933.34;;;15.07;51.33
60479;BME280;46321;48.398;11.754;2023-02-18T13:07:31;96906.97;;;15.19;50.29
60479;BME280;46321;48.398;11.754;2023-02-18T13:10:27;96915.53;;;15.15;50.04
60479;BME280;46321;48.398;11.754;2023-02-18T13:13:09;96927.72;;;15.24;49.67
60479;BME280;46321;48.398;11.754;2023-02-18T13:15:39;96917.31;;;15.01;49.62
60479;BME280;46321;48.398;11.754;2023-02-18T13:18:13;96915.69;;;15.06;49.75
60479;BME280;46321;48.398;11.754;2023-02-18T13:20:55;96909.03;;;14.95;50.15
60479;BME280;46321;48.398;11.754;2023-02-18T13:23:27;96909.00;;;14.88;50.60
60479;BME280;46321;48.398;11.754;2023-02-18T13:25:58;96916.69;;;14.83;50.68
60479;BME280;46321;48.398;11.754;2023-02-18T13:28:29;96908.91;;;14.82;50.93
60479;BME280;46321;48.398;11.754;2023-02-18T13:34:06;96918.75;;;14.59;51.42
60479;BME280;46321;48.398;11.754;2023-02-18T13:39:15;96913.50;;;14.44;51.32
60479;BME280;46321;48.398;11.754;2023-02-18T13:41:46;96902.78;;;14.37;52.24
60479;BME280;46321;48.398;11.754;2023-02-18T13:46:57;96902.00;;;14.22;52.75
60479;BME280;46321;48.398;11.754;2023-02-18T13:49:25;96910.09;;;14.13;53.19
60479;BME280;46321;48.398;11.754;2023-02-18T13:51:57;96907.13;;;14.23;52.98
60479;BME280;46321;48.398;11.754;2023-02-18T13:54:29;96905.59;;;14.14;53.08
60479;BME280;46321;48.398;11.754;2023-02-18T13:57:01;96899.56;;;14.05;52.95
60479;BME280;46321;48.398;11.754;2023-02-18T13:59:35;96899.56;;;14.05;53.11
60479;BME280;46321;48.398;11.754;2023-02-18T14:04:48;96910.53;;;13.80;53.60
60479;BME280;46321;48.398;11.754;2023-02-18T14:12:38;96900.44;;;13.60;53.67
60479;BME280;46321;48.398;11.754;2023-02-18T14:18:07;96899.59;;;13.44;54.99
60479;BME280;46321;48.398;11.754;2023-02-18T14:23:10;96894.28;;;13.44;54.58
60479;BME280;46321;48.398;11.754;2023-02-18T14:25:38;96896.38;;;13.49;54.86
60479;BME280;46321;48.398;11.754;2023-02-18T14:31:01;96890.25;;;13.48;54.85
60479;BME280;46321;48.398;11.754;2023-02-18T14:33:31;96892.25;;;13.46;55.30
60479;BME280;46321;48.398;11.754;2023-02-18T14:41:57;96901.63;;;13.42;55.61
60479;BME280;46321;48.398;11.754;2023-02-18T14:47:09;96903.38;;;13.35;56.15